Aviation Digital Data Service (ADDS)

Output produced by METARs form (1306 UTC 27 February 2015)
found at http://aviationweather.gov/adds/metars/
 
KARA 271253Z 04013KT 7SM BKN018 02/M02 A3038 RMK AO2 SLP286 T00221017